Terminal Aerodrome Forecast
Issued by NWS Binghamton, NY

Home | Current Version | Previous Version | Text Only | Print | Product List | Glossary On
Versions: 1 2 3 4 5 6 7 8 9 10 11 12 13 14 15 16
301
FTUS41 KBGM 241016 AAB
TAFBGM
TAF AMD
KBGM 241016Z 2410/2506 31008KT P6SM SCT007 OVC015
      TEMPO 2410/2412 5SM -SHRA BR BKN007 OVC012
     FM241200 30010G18KT P6SM SCT100
     FM242200 30007KT P6SM SCT200
      AMD NOT SKED=

USA.gov is the U.S. government's official web portal to all federal, state and local government web resources and services.